Time;durP1;ratioP1;P1;durP2;ratioP2;P2;SDS_P1;SDS_P2;PMS_P1;PMS_P2;Temp;Humidity;BMP_temperature;BMP_pressure;BME280_temperature;BME280_humidity;BME280_pressure;Samples;Min_cycle;Max_cycle;Signal;HPM_P1;HPM_P2
2022/10/18 00:01:01;;;;;;;21.17;13.83;;;;;;;9.75;100.00;98052.31;5016354;28;20448;-59
2022/10/18 00:03:30;;;;;;;20.47;14.17;;;;;;;9.71;100.00;98051.00;4971233;28;20219;-60
2022/10/18 00:05:58;;;;;;;17.00;13.03;;;;;;;9.68;100.00;98046.81;4997690;28;20334;-58
2022/10/18 00:08:27;;;;;;;14.53;13.03;;;;;;;9.62;100.00;98055.41;5017796;28;20585;-57
2022/10/18 00:10:55;;;;;;;18.13;12.73;;;;;;;9.57;100.00;98047.09;5015819;28;20699;-60
2022/10/18 00:13:23;;;;;;;13.57;12.17;;;;;;;9.54;100.00;98044.78;5000075;28;20211;-60
2022/10/18 00:15:59;;;;;;;15.33;11.67;;;;;;;9.54;100.00;98052.69;4996606;28;20458;-61
2022/10/18 00:18:28;;;;;;;15.20;12.20;;;;;;;9.53;100.00;98048.41;4974856;28;20370;-60
2022/10/18 00:20:58;;;;;;;15.00;12.47;;;;;;;9.58;100.00;98058.50;5005793;28;21740;-60
2022/10/18 00:23:27;;;;;;;12.77;11.43;;;;;;;9.58;100.00;98058.50;5005326;28;20601;-62
2022/10/18 00:26:00;;;;;;;14.33;12.87;;;;;;;9.62;100.00;98065.13;5017643;28;20696;-60
2022/10/18 00:28:28;;;;;;;15.13;11.60;;;;;;;9.60;100.00;98064.47;5000300;28;20218;-62
2022/10/18 00:30:58;;;;;;;15.53;11.67;;;;;;;9.53;100.00;98067.72;4985550;28;20211;-62
2022/10/18 00:33:26;;;;;;;15.17;11.07;;;;;;;9.52;100.00;98060.78;5018353;28;20209;-63
2022/10/18 00:35:55;;;;;;;12.53;11.27;;;;;;;9.57;100.00;98060.31;4962159;28;20593;-62
2022/10/18 00:38:23;;;;;;;12.50;11.23;;;;;;;9.52;100.00;98059.97;4999094;28;20233;-61
2022/10/18 00:40:51;;;;;;;11.23;10.23;;;;;;;9.53;100.00;98059.78;5015306;28;20300;-61
2022/10/18 00:43:51;;;;;;;10.37;9.53;;;;;;;9.46;100.00;98047.34;5022560;28;20217;-61
2022/10/18 16:54:50;;;;;;;11.50;10.70;;;;;;;13.62;100.00;98015.38;4988331;28;20370;-59
2022/10/18 16:57:18;;;;;;;10.97;10.07;;;;;;;13.53;100.00;98017.31;5021565;28;20870;-61
2022/10/18 16:59:47;;;;;;;10.20;9.30;;;;;;;13.43;100.00;98017.56;5003459;28;20537;-61
2022/10/18 17:02:15;;;;;;;9.77;8.87;;;;;;;13.30;100.00;98028.81;5020800;28;20231;-58
2022/10/18 17:04:43;;;;;;;11.00;10.00;;;;;;;13.26;100.00;98038.16;4999333;28;20233;-61
2022/10/18 17:07:17;;;;;;;10.80;9.90;;;;;;;13.21;100.00;98037.03;5021113;28;20586;-60
2022/10/18 17:09:46;;;;;;;10.60;9.70;;;;;;;13.17;100.00;98036.59;4964106;28;20228;-59
2022/10/18 17:12:16;;;;;;;13.47;12.23;;;;;;;13.20;100.00;98036.22;5021836;28;20199;-61
2022/10/18 17:14:44;;;;;;;13.80;12.60;;;;;;;13.25;100.00;98048.97;4995778;28;20405;-59
2022/10/18 17:17:12;;;;;;;14.20;12.90;;;;;;;13.30;100.00;98046.63;5019319;28;20435;-60
2022/10/18 17:19:41;;;;;;;15.63;14.23;;;;;;;13.30;100.00;98049.28;5015142;28;20211;-60
2022/10/18 17:22:09;;;;;;;14.27;12.97;;;;;;;13.27;100.00;98050.47;5018448;28;20565;-63
2022/10/18 17:24:37;;;;;;;15.97;14.40;;;;;;;13.26;100.00;98053.31;4950538;28;20564;-61
2022/10/18 17:27:05;;;;;;;16.07;14.67;;;;;;;13.25;100.00;98059.63;5018714;28;20214;-61
2022/10/18 17:29:35;;;;;;;15.00;13.70;;;;;;;13.21;100.00;98059.16;4972604;28;20320;-63
2022/10/18 17:32:05;;;;;;;15.60;14.20;;;;;;;13.16;100.00;98058.88;5020470;28;21069;-62
2022/10/18 17:34:35;;;;;;;16.60;15.27;;;;;;;13.07;100.00;98055.44;5012944;28;20218;-62
2022/10/18 17:37:04;;;;;;;16.20;14.90;;;;;;;13.03;100.00;98062.13;5020396;28;20218;-62
2022/10/18 17:39:33;;;;;;;17.03;15.47;;;;;;;13.01;100.00;98056.16;4972382;28;20500;-62
2022/10/18 17:42:01;;;;;;;18.50;16.90;;;;;;;12.98;100.00;98061.84;5019217;28;21096;-63
2022/10/18 17:44:29;;;;;;;19.47;17.97;;;;;;;12.90;100.00;98064.56;4993463;28;21145;-62
2022/10/18 17:46:59;;;;;;;18.87;17.30;;;;;;;12.86;100.00;98070.22;5016591;28;20226;-62
2022/10/18 17:49:27;;;;;;;16.33;15.13;;;;;;;12.77;100.00;98071.28;4981849;28;20211;-63
2022/10/18 17:51:55;;;;;;;15.77;14.57;;;;;;;12.69;100.00;98074.84;5017537;28;20198;-61
2022/10/18 17:54:23;;;;;;;15.70;14.50;;;;;;;12.62;100.00;98073.06;4963127;28;21423;-64
2022/10/18 17:56:51;;;;;;;15.17;14.00;;;;;;;12.50;100.00;98070.78;5005687;28;20231;-65
2022/10/18 17:59:21;;;;;;;16.10;14.90;;;;;;;12.42;100.00;98078.78;5000457;28;20218;-62
2022/10/18 18:01:49;;;;;;;17.23;15.93;;;;;;;12.48;100.00;98088.72;4982049;28;20219;-65
2022/10/18 18:04:19;;;;;;;16.10;14.63;;;;;;;12.36;100.00;98082.16;5017510;28;20353;-64
2022/10/18 18:06:47;;;;;;;18.23;16.63;;;;;;;12.43;100.00;98078.63;5024349;28;21242;-63
2022/10/18 18:09:17;;;;;;;16.47;15.00;;;;;;;12.53;100.00;98078.41;4981445;28;20209;-64
2022/10/18 18:11:48;;;;;;;17.03;15.67;;;;;;;12.68;100.00;98082.97;5021410;28;20900;-64
2022/10/18 18:14:16;;;;;;;18.40;16.80;;;;;;;12.78;100.00;98085.41;5021107;28;20202;-61
2022/10/18 18:16:45;;;;;;;18.37;16.67;;;;;;;12.81;100.00;98072.59;4987202;28;22025;-63
2022/10/18 18:19:14;;;;;;;16.90;15.30;;;;;;;12.93;100.00;98080.97;5020810;28;20218;-63
2022/10/18 18:21:44;;;;;;;16.87;15.57;;;;;;;12.95;100.00;98081.63;5002447;28;20222;-62
2022/10/18 18:24:12;;;;;;;16.27;14.70;;;;;;;13.00;100.00;98078.44;5019483;28;20228;-63
2022/10/18 18:26:42;;;;;;;14.87;13.43;;;;;;;13.02;100.00;98079.91;4970674;28;20254;-65
2022/10/18 18:29:13;;;;;;;13.17;12.17;;;;;;;13.11;100.00;98078.03;4998831;28;20234;-64
2022/10/18 18:31:41;;;;;;;13.80;12.67;;;;;;;13.12;100.00;98079.69;4998515;28;20202;-63
2022/10/18 18:34:11;;;;;;;12.47;11.53;;;;;;;12.98;100.00;98070.63;5003231;28;20199;-62
2022/10/18 18:36:39;;;;;;;13.50;12.30;;;;;;;12.88;100.00;98072.72;5021544;28;20958;-64
2022/10/18 18:39:20;;;;;;;15.30;14.10;;;;;;;12.74;100.00;98077.78;5016867;28;20207;-63
2022/10/18 18:41:49;;;;;;;15.93;14.60;;;;;;;12.65;100.00;98068.19;4983660;28;20929;-63
2022/10/18 18:44:19;;;;;;;17.33;15.90;;;;;;;12.63;100.00;98067.53;5020456;28;20218;-64
2022/10/18 18:46:48;;;;;;;18.60;17.00;;;;;;;12.56;100.00;98061.28;4998739;28;21013;-64
2022/10/18 18:49:16;;;;;;;17.53;15.67;;;;;;;12.68;100.00;98065.19;5001052;28;20203;-63
2022/10/18 18:51:44;;;;;;;18.50;16.87;;;;;;;12.72;100.00;98066.50;5020651;28;20217;-62
2022/10/18 18:54:15;;;;;;;19.77;18.07;;;;;;;12.79;100.00;98071.94;5021401;28;20938;-63
2022/10/18 18:56:43;;;;;;;19.63;16.47;;;;;;;12.76;100.00;98058.19;4976683;28;20769;-65
2022/10/18 18:59:12;;;;;;;17.70;16.10;;;;;;;12.78;100.00;98064.16;5013033;28;20565;-63
2022/10/18 19:01:41;;;;;;;20.23;18.33;;;;;;;12.79;100.00;98057.81;5016998;28;20694;-63
2022/10/18 19:04:10;;;;;;;17.00;15.53;;;;;;;12.82;100.00;98070.75;4982207;28;21007;-62
2022/10/18 19:06:40;;;;;;;14.43;12.90;;;;;;;12.80;100.00;98060.28;5017736;28;20230;-63
2022/10/18 19:09:17;;;;;;;12.13;11.13;;;;;;;12.84;100.00;98074.06;5024184;28;20313;-63
2022/10/18 19:11:48;;;;;;;13.60;12.40;;;;;;;12.91;100.00;98079.53;4977103;28;22132;-61
2022/10/18 19:14:17;;;;;;;15.03;13.83;;;;;;;12.87;100.00;98068.41;5016461;28;20203;-61
2022/10/18 19:16:47;;;;;;;13.87;12.90;;;;;;;12.84;100.00;98066.91;5018877;28;21037;-61
2022/10/18 19:19:16;;;;;;;13.80;12.80;;;;;;;12.81;100.00;98069.91;4977300;28;20237;-62
2022/10/18 19:21:46;;;;;;;14.00;12.73;;;;;;;12.76;100.00;98076.78;5013747;28;20206;-61
2022/10/18 19:24:15;;;;;;;12.67;11.73;;;;;;;12.71;100.00;98072.00;5019699;28;20226;-61
2022/10/18 19:26:44;;;;;;;15.67;14.17;;;;;;;12.68;100.00;98075.00;4978940;28;20237;-62
2022/10/18 19:29:16;;;;;;;16.53;15.03;;;;;;;12.57;100.00;98078.88;4980905;28;20210;-61
2022/10/18 19:31:45;;;;;;;16.87;15.40;;;;;;;12.41;100.00;98069.16;5020120;28;20295;-59
2022/10/18 19:34:16;;;;;;;16.60;15.23;;;;;;;12.27;100.00;98068.06;4980984;28;20303;-60
2022/10/18 19:36:45;;;;;;;17.60;16.13;;;;;;;12.15;100.00;98064.97;4999287;28;20435;-60
2022/10/18 19:39:17;;;;;;;17.87;16.23;;;;;;;11.98;100.00;98072.16;5015440;28;20949;-61
2022/10/18 19:41:45;;;;;;;18.97;17.17;;;;;;;11.85;100.00;98070.03;5016635;28;20595;-61
2022/10/18 19:44:15;;;;;;;20.23;18.53;;;;;;;11.78;100.00;98066.41;4976229;28;20218;-61
2022/10/18 19:46:43;;;;;;;19.60;17.80;;;;;;;11.72;100.00;98073.19;5018462;28;20234;-61
2022/10/18 19:49:12;;;;;;;19.50;17.77;;;;;;;11.72;100.00;98065.25;4981322;28;20843;-62
2022/10/18 19:51:40;;;;;;;19.60;17.90;;;;;;;11.88;100.00;98075.00;4997752;28;20302;-61
2022/10/18 19:54:10;;;;;;;19.67;17.87;;;;;;;12.00;100.00;98073.66;5015109;28;20252;-59
2022/10/18 19:56:39;;;;;;;20.97;19.13;;;;;;;12.14;100.00;98082.72;5019092;28;20230;-60
2022/10/18 19:59:08;;;;;;;20.40;18.70;;;;;;;12.26;100.00;98077.03;4979467;28;20424;-61
2022/10/18 20:01:38;;;;;;;20.20;18.23;;;;;;;12.37;100.00;98075.81;5014821;28;20393;-62
2022/10/18 20:04:07;;;;;;;19.00;17.40;;;;;;;12.43;100.00;98075.97;5013092;28;20734;-59
2022/10/18 20:06:36;;;;;;;20.57;18.77;;;;;;;12.50;100.00;98076.13;4991387;28;20546;-62
2022/10/18 20:09:05;;;;;;;20.00;18.23;;;;;;;12.54;100.00;98074.75;5016199;28;21612;-61
2022/10/18 20:11:34;;;;;;;20.80;18.63;;;;;;;12.63;100.00;98078.19;5015877;28;20284;-62
2022/10/18 20:14:04;;;;;;;17.13;15.73;;;;;;;12.61;100.00;98077.53;4979312;28;20226;-62
2022/10/18 20:16:33;;;;;;;16.97;15.40;;;;;;;12.73;100.00;98078.81;5011944;28;20239;-62
2022/10/18 20:19:05;;;;;;;17.03;15.43;;;;;;;12.91;100.00;98071.53;5015696;28;21191;-62
2022/10/18 20:21:35;;;;;;;15.70;14.13;;;;;;;12.97;100.00;98074.31;4991182;28;20914;-61
2022/10/18 20:24:03;;;;;;;15.97;14.33;;;;;;;13.03;100.00;98067.47;4996352;28;22329;-61
2022/10/18 20:26:32;;;;;;;15.97;14.47;;;;;;;13.00;100.00;98076.59;5013703;28;21110;-61
2022/10/18 20:29:00;;;;;;;15.80;14.30;;;;;;;12.81;100.00;98067.25;5012434;28;20203;-62
2022/10/18 20:31:30;;;;;;;16.27;14.87;;;;;;;12.67;100.00;98066.19;4990760;28;20457;-61
2022/10/18 20:33:59;;;;;;;15.93;14.43;;;;;;;12.51;100.00;98064.47;5019313;28;20882;-61
2022/10/18 20:36:30;;;;;;;14.27;12.97;;;;;;;12.40;100.00;98068.34;4995795;28;20230;-61
2022/10/18 20:38:59;;;;;;;15.53;14.13;;;;;;;12.32;100.00;98064.91;5001120;28;20210;-61
2022/10/18 20:41:28;;;;;;;14.93;13.83;;;;;;;12.20;100.00;98062.63;5021020;28;20241;-62
2022/10/18 20:43:58;;;;;;;15.77;14.37;;;;;;;12.15;100.00;98057.00;5022921;28;20209;-61
2022/10/18 20:46:27;;;;;;;15.07;13.87;;;;;;;12.02;100.00;98057.56;4983725;28;20308;-64
2022/10/18 20:48:55;;;;;;;14.67;13.43;;;;;;;11.87;100.00;98060.06;5021759;28;20343;-60
2022/10/18 20:51:24;;;;;;;14.37;13.17;;;;;;;11.81;100.00;98058.91;4999123;28;20878;-60
2022/10/18 20:53:53;;;;;;;14.67;13.37;;;;;;;11.70;100.00;98068.03;5021707;28;20203;-60
2022/10/18 20:56:25;;;;;;;19.30;17.47;;;;;;;11.69;100.00;98066.41;5003400;28;20467;-62
2022/10/18 20:58:55;;;;;;;15.57;14.33;;;;;;;11.58;100.00;98064.94;5021522;28;21213;-62
2022/10/18 21:01:25;;;;;;;14.70;13.20;;;;;;;11.61;100.00;98068.25;4980980;28;20203;-61
2022/10/18 21:03:54;;;;;;;17.63;15.83;;;;;;;11.50;100.00;98070.25;5021954;28;20669;-61
2022/10/18 21:06:24;;;;;;;13.80;12.47;;;;;;;11.50;100.00;98078.19;5015831;28;20219;-62
2022/10/18 21:08:55;;;;;;;13.80;12.77;;;;;;;11.38;100.00;98084.84;5001817;28;20215;-61
2022/10/18 21:11:23;;;;;;;16.90;15.20;;;;;;;11.37;100.00;98077.91;4999396;28;20617;-59
2022/10/18 21:13:52;;;;;;;15.07;13.90;;;;;;;11.32;100.00;98086.34;5021008;28;20206;-60
2022/10/18 21:16:20;;;;;;;14.13;12.93;;;;;;;11.27;100.00;98083.38;5016803;28;20226;-60
2022/10/18 21:18:49;;;;;;;13.60;12.43;;;;;;;11.32;100.00;98080.22;4967215;28;20473;-61
2022/10/18 21:21:18;;;;;;;13.93;12.73;;;;;;;11.38;100.00;98082.22;5017449;28;21176;-61
2022/10/18 21:23:47;;;;;;;13.00;11.90;;;;;;;11.34;100.00;98079.03;5005194;28;20598;-58
2022/10/18 21:26:18;;;;;;;12.50;11.50;;;;;;;11.28;100.00;98083.22;4999072;28;21904;-63
2022/10/18 21:28:46;;;;;;;12.87;11.67;;;;;;;11.18;100.00;98065.81;5023285;28;20203;-63
2022/10/18 21:31:16;;;;;;;13.40;12.17;;;;;;;11.14;100.00;98076.75;5019593;28;20238;-61
2022/10/18 21:33:45;;;;;;;14.17;12.90;;;;;;;11.07;100.00;98066.97;4986757;28;20226;-61
2022/10/18 21:36:14;;;;;;;12.33;11.23;;;;;;;10.99;100.00;98065.97;5017823;28;20226;-62
2022/10/18 21:38:44;;;;;;;13.70;12.50;;;;;;;10.90;100.00;98068.75;5000510;28;20214;-63
2022/10/18 21:41:14;;;;;;;14.27;12.97;;;;;;;10.80;100.00;98066.28;5003473;28;20318;-62
2022/10/18 21:43:45;;;;;;;15.30;14.07;;;;;;;10.83;100.00;98065.97;5018207;28;20203;-63
2022/10/18 21:46:14;;;;;;;13.37;12.27;;;;;;;10.73;100.00;98067.91;5017105;28;20776;-62
2022/10/18 21:48:44;;;;;;;14.90;13.60;;;;;;;10.68;100.00;98063.94;4984547;28;20612;-59
2022/10/18 21:51:13;;;;;;;19.27;14.63;;;;;;;10.61;100.00;98048.88;5020461;28;20419;-61
2022/10/18 21:53:43;;;;;;;14.53;13.23;;;;;;;10.48;100.00;98052.78;5001456;28;20680;-60
2022/10/18 21:56:13;;;;;;;13.30;12.23;;;;;;;10.44;100.00;98054.09;5007654;28;20222;-61
2022/10/18 21:58:45;;;;;;;15.33;13.13;;;;;;;10.52;100.00;98062.06;5017346;28;20727;-61
2022/10/18 22:01:15;;;;;;;16.03;14.63;;;;;;;10.39;100.00;98051.91;5019774;28;20199;-61
2022/10/18 22:03:44;;;;;;;13.70;12.60;;;;;;;10.32;100.00;98045.59;5020395;28;22109;-63
2022/10/18 22:06:14;;;;;;;12.73;11.73;;;;;;;10.20;100.00;98049.53;4975141;28;20614;-62
2022/10/18 22:08:43;;;;;;;12.63;11.63;;;;;;;10.17;100.00;98045.38;5000977;28;20222;-62
2022/10/18 22:11:12;;;;;;;12.40;11.40;;;;;;;10.18;100.00;98041.75;5017937;28;20356;-60
2022/10/18 22:13:40;;;;;;;14.20;13.00;;;;;;;10.16;100.00;98045.56;4999168;28;20242;-59
2022/10/18 22:16:13;;;;;;;14.80;13.50;;;;;;;10.06;100.00;98035.09;5014279;28;22435;-62
2022/10/18 22:18:41;;;;;;;17.83;14.70;;;;;;;10.03;100.00;98041.50;5020018;28;20528;-61
2022/10/18 22:21:11;;;;;;;13.30;12.20;;;;;;;9.97;100.00;98039.50;4981124;28;20511;-60
2022/10/18 22:23:41;;;;;;;14.20;13.00;;;;;;;10.02;100.00;98042.50;4997988;28;20701;-62
2022/10/18 22:26:11;;;;;;;17.10;15.40;;;;;;;10.11;100.00;98032.78;5017485;28;20824;-60
2022/10/18 22:28:40;;;;;;;15.63;14.27;;;;;;;10.22;100.00;98039.63;5000679;28;20215;-63
2022/10/18 22:31:15;;;;;;;16.40;14.90;;;;;;;10.15;100.00;98031.47;5020218;28;20218;-62
2022/10/18 22:33:44;;;;;;;14.73;13.43;;;;;;;10.01;100.00;98032.91;5020001;28;20409;-62
2022/10/18 22:36:13;;;;;;;14.67;13.43;;;;;;;9.97;100.00;98031.56;4980958;28;20234;-62
2022/10/18 22:38:41;;;;;;;14.23;12.97;;;;;;;9.85;100.00;98025.75;5012017;28;20562;-61
2022/10/18 22:41:11;;;;;;;14.60;12.90;;;;;;;9.85;100.00;98034.50;5006606;28;20614;-60
2022/10/18 22:43:40;;;;;;;13.40;12.23;;;;;;;9.82;100.00;98028.69;4999048;28;20238;-61
2022/10/18 22:46:09;;;;;;;12.97;11.90;;;;;;;9.72;100.00;98027.97;5013926;28;20231;-61
2022/10/18 22:48:39;;;;;;;22.00;19.90;;;;;;;9.70;100.00;98017.56;5017821;28;20207;-62
2022/10/18 22:51:08;;;;;;;17.00;10.30;;;;;;;9.76;100.00;98022.22;4990997;28;22490;-58
2022/10/18 22:53:37;;;;;;;21.90;11.77;;;;;;;9.74;100.00;98018.91;4973366;28;20211;-61
2022/10/18 22:56:06;;;;;;;11.70;10.60;;;;;;;9.81;100.00;98013.78;4999046;28;20805;-62
2022/10/18 22:58:34;;;;;;;12.53;11.50;;;;;;;9.72;100.00;98010.31;4994664;28;20831;-59
2022/10/18 23:01:04;;;;;;;11.47;10.50;;;;;;;9.62;100.00;98012.22;4996649;28;20217;-61
2022/10/18 23:03:33;;;;;;;11.33;10.27;;;;;;;9.51;100.00;98006.22;5013920;28;20241;-62
2022/10/18 23:06:03;;;;;;;11.77;10.67;;;;;;;9.50;100.00;98017.78;5016716;28;20218;-62
2022/10/18 23:08:31;;;;;;;12.53;11.43;;;;;;;9.44;100.00;98015.78;4952661;28;20211;-60
2022/10/18 23:11:00;;;;;;;11.80;10.67;;;;;;;9.35;100.00;98019.34;4996199;28;20714;-63
2022/10/18 23:13:28;;;;;;;13.57;12.30;;;;;;;9.26;100.00;98016.63;5007796;28;20214;-60
2022/10/18 23:16:01;;;;;;;13.73;12.53;;;;;;;9.37;100.00;98017.38;5010237;28;20507;-59
2022/10/18 23:18:32;;;;;;;14.67;13.33;;;;;;;9.36;100.00;98011.25;5010575;28;20218;-60
2022/10/18 23:21:03;;;;;;;13.93;12.63;;;;;;;9.35;100.00;98006.13;5017938;28;20198;-62
2022/10/18 23:23:34;;;;;;;13.17;11.93;;;;;;;9.29;100.00;98014.69;4973700;28;20210;-61
2022/10/18 23:26:03;;;;;;;17.37;12.73;;;;;;;9.37;100.00;98012.09;4995539;28;20927;-63
2022/10/18 23:28:34;;;;;;;17.07;13.77;;;;;;;9.41;100.00;98021.38;4989556;28;20199;-60
2022/10/18 23:31:06;;;;;;;15.13;12.53;;;;;;;9.42;100.00;98023.03;5016535;28;20209;-60
2022/10/18 23:33:34;;;;;;;16.63;13.37;;;;;;;9.44;100.00;98015.78;5016087;28;20416;-60
2022/10/18 23:36:05;;;;;;;19.10;13.63;;;;;;;9.56;100.00;98027.72;5015792;28;20226;-61
2022/10/18 23:38:33;;;;;;;20.17;13.30;;;;;;;9.58;100.00;98032.03;4965777;28;20466;-62
2022/10/18 23:41:02;;;;;;;15.40;12.63;;;;;;;9.56;100.00;98043.59;5010412;28;20218;-62
2022/10/18 23:43:30;;;;;;;23.43;13.80;;;;;;;9.53;100.00;98038.63;4964863;28;20211;-62
2022/10/18 23:45:58;;;;;;;14.50;13.00;;;;;;;9.59;100.00;98039.00;5012633;28;20626;-63
2022/10/18 23:48:27;;;;;;;13.27;12.23;;;;;;;9.73;100.00;98049.00;5016000;28;20803;-60
2022/10/18 23:50:55;;;;;;;14.30;12.97;;;;;;;9.82;100.00;98039.28;4993682;28;20641;-63
2022/10/18 23:53:24;;;;;;;27.63;14.13;;;;;;;9.85;100.00;98045.09;5014922;28;20215;-62
2022/10/18 23:55:54;;;;;;;24.47;13.40;;;;;;;9.93;100.00;98043.47;4973978;28;20448;-63
2022/10/18 23:58:22;;;;;;;25.37;12.47;;;;;;;9.97;100.00;98042.16;4990596;28;20211;-61
